createdAt,value
2024-02-24T00:02:01.377Z,11.52
2024-02-24T00:04:31.283Z,12.68
2024-02-24T00:07:00.470Z,13.35
2024-02-24T00:09:30.099Z,12.70
2024-02-24T00:11:59.761Z,12.88
2024-02-24T00:14:29.399Z,11.98
2024-02-24T00:16:59.134Z,13.25
2024-02-24T00:19:28.454Z,13.18
2024-02-24T00:21:58.006Z,12.48
2024-02-24T00:24:27.432Z,13.10
2024-02-24T00:26:56.587Z,12.82
2024-02-24T00:29:26.136Z,13.75
2024-02-24T00:31:55.424Z,12.77
2024-02-24T00:34:25.046Z,12.93
2024-02-24T00:36:54.487Z,11.93
2024-02-24T00:39:23.732Z,13.15
2024-02-24T00:41:54.815Z,12.85
2024-02-24T00:44:24.474Z,13.18
2024-02-24T00:46:53.780Z,13.15
2024-02-24T00:49:23.663Z,13.43
2024-02-24T00:51:52.948Z,13.55
2024-02-24T00:54:22.554Z,14.63
2024-02-24T00:56:52.058Z,15.05
2024-02-24T00:59:21.656Z,15.32
2024-02-24T01:01:50.997Z,15.80
2024-02-24T01:04:24.400Z,16.48
2024-02-24T01:06:55.324Z,16.40
2024-02-24T01:09:25.503Z,14.70
2024-02-24T01:11:55.122Z,15.15
2024-02-24T01:14:24.598Z,14.57
2024-02-24T01:16:54.104Z,14.63
2024-02-24T01:19:23.528Z,14.65
2024-02-24T01:21:55.226Z,15.35
2024-02-24T01:24:25.232Z,16.88
2024-02-24T01:26:54.762Z,15.73
2024-02-24T01:29:24.118Z,15.40
2024-02-24T01:31:53.542Z,16.42
2024-02-24T01:34:22.920Z,15.98
2024-02-24T01:36:52.365Z,15.98
2024-02-24T01:39:21.669Z,16.10
2024-02-24T01:41:51.174Z,17.23
2024-02-24T01:44:20.777Z,17.42
2024-02-24T01:46:50.646Z,17.05
2024-02-24T01:49:20.058Z,18.17
2024-02-24T01:51:49.548Z,18.15
2024-02-24T01:54:18.995Z,16.85
2024-02-24T01:56:48.951Z,17.00
2024-02-24T01:59:18.918Z,17.20
2024-02-24T02:01:48.518Z,18.17
2024-02-24T02:04:17.747Z,18.55
2024-02-24T02:06:47.643Z,18.60
2024-02-24T02:09:17.029Z,17.20
2024-02-24T02:11:56.086Z,18.40
2024-02-24T02:16:59.196Z,17.58
2024-02-24T02:19:28.672Z,17.25
2024-02-24T02:22:01.598Z,20.08
2024-02-24T02:24:30.899Z,17.45
2024-02-24T02:27:00.669Z,18.63
2024-02-24T02:29:30.186Z,18.88
2024-02-24T02:32:00.306Z,23.25
2024-02-24T02:34:30.043Z,30.08
2024-02-24T02:36:59.562Z,22.35
2024-02-24T02:39:28.930Z,24.30
2024-02-24T02:41:58.418Z,37.92
2024-02-24T02:44:27.821Z,24.13
2024-02-24T02:46:57.313Z,20.23
2024-02-24T02:49:26.950Z,18.48
2024-02-24T02:51:56.432Z,16.55
2024-02-24T02:54:25.640Z,16.60
2024-02-24T02:56:55.309Z,16.98
2024-02-24T02:59:24.565Z,15.65
2024-02-24T03:01:54.367Z,15.18
2024-02-24T03:04:23.750Z,15.82
2024-02-24T03:06:53.161Z,15.65
2024-02-24T03:09:22.361Z,15.00
2024-02-24T03:11:51.967Z,15.80
2024-02-24T03:14:22.341Z,17.50
2024-02-24T03:16:51.993Z,14.10
2024-02-24T03:19:21.233Z,14.15
2024-02-24T03:21:51.102Z,13.70
2024-02-24T03:24:20.662Z,13.45
2024-02-24T03:26:49.921Z,13.10
2024-02-24T03:29:19.527Z,12.32
2024-02-24T03:31:48.982Z,12.82
2024-02-24T03:34:18.304Z,11.05
2024-02-24T03:36:47.480Z,10.15
2024-02-24T03:39:16.742Z,11.82
2024-02-24T03:41:46.306Z,13.20
2024-02-24T03:44:15.562Z,13.60
2024-02-24T03:46:45.129Z,14.25
2024-02-24T03:49:14.927Z,14.55
2024-02-24T03:51:44.369Z,13.38
2024-02-24T03:54:13.850Z,14.65
2024-02-24T03:56:43.571Z,15.32
2024-02-24T03:59:12.801Z,12.50
2024-02-24T04:01:43.392Z,12.55
2024-02-24T04:04:12.896Z,13.95
2024-02-24T04:06:48.415Z,13.35
2024-02-24T04:09:17.912Z,14.68
2024-02-24T04:11:47.720Z,15.15
2024-02-24T04:14:17.180Z,14.25
2024-02-24T04:16:46.814Z,15.30
2024-02-24T04:19:16.526Z,14.38
2024-02-24T04:21:45.775Z,13.88
2024-02-24T04:24:15.280Z,13.77
2024-02-24T04:26:44.667Z,13.05
2024-02-24T04:29:14.121Z,15.05
2024-02-24T04:31:43.377Z,14.70
2024-02-24T04:34:12.862Z,14.13
2024-02-24T04:36:43.751Z,14.35
2024-02-24T04:39:13.283Z,13.68
2024-02-24T04:41:43.192Z,16.13
2024-02-24T04:44:12.662Z,15.27
2024-02-24T04:46:42.922Z,15.18
2024-02-24T04:49:12.553Z,14.23
2024-02-24T04:51:41.855Z,14.82
2024-02-24T04:54:11.291Z,12.82
2024-02-24T04:56:40.568Z,12.25
2024-02-24T04:59:10.249Z,11.65
2024-02-24T05:01:39.486Z,12.48
2024-02-24T05:04:08.922Z,11.82
2024-02-24T05:06:38.512Z,12.85
2024-02-24T05:09:10.838Z,12.98
2024-02-24T05:11:41.591Z,14.38
2024-02-24T05:14:11.238Z,14.35
2024-02-24T05:16:43.966Z,12.88
2024-02-24T05:19:13.797Z,13.65
2024-02-24T05:21:43.271Z,13.55
2024-02-24T05:24:12.556Z,13.27
2024-02-24T05:26:42.155Z,14.27
2024-02-24T05:29:11.837Z,14.43
2024-02-24T05:31:41.313Z,12.95
2024-02-24T05:34:10.824Z,15.70
2024-02-24T05:36:40.358Z,15.50
2024-02-24T05:39:10.291Z,14.43
2024-02-24T05:41:39.882Z,14.80
2024-02-24T05:44:09.702Z,15.73
2024-02-24T05:46:38.944Z,14.00
2024-02-24T05:49:08.470Z,13.68
2024-02-24T05:51:38.217Z,11.57
2024-02-24T05:54:07.937Z,11.57
2024-02-24T05:56:37.791Z,10.70
2024-02-24T05:59:07.482Z,11.63
2024-02-24T06:01:36.985Z,10.73
2024-02-24T06:04:06.577Z,9.82
2024-02-24T06:06:36.136Z,11.70
2024-02-24T06:09:06.161Z,10.30
2024-02-24T06:11:36.474Z,10.35
2024-02-24T06:14:06.535Z,11.23
2024-02-24T06:16:36.041Z,11.65
2024-02-24T06:19:05.784Z,11.80
2024-02-24T06:21:35.408Z,11.40
2024-02-24T06:24:05.734Z,10.55
2024-02-24T06:26:35.853Z,10.70
2024-02-24T06:29:05.469Z,9.95
2024-02-24T06:31:34.829Z,11.10
2024-02-24T06:34:08.209Z,10.70
2024-02-24T06:36:39.118Z,9.07
2024-02-24T06:39:09.709Z,9.93
2024-02-24T06:41:39.322Z,9.73
2024-02-24T06:44:08.873Z,10.43
2024-02-24T06:46:38.389Z,9.52
2024-02-24T06:49:08.232Z,9.30
2024-02-24T06:51:38.179Z,8.68
2024-02-24T06:54:08.195Z,8.75
2024-02-24T06:56:38.110Z,10.13
2024-02-24T06:59:08.982Z,9.32
2024-02-24T07:01:38.858Z,9.48
2024-02-24T07:04:08.551Z,10.07
2024-02-24T07:06:38.419Z,9.23
2024-02-24T07:09:08.437Z,10.60
2024-02-24T07:11:38.533Z,8.05
2024-02-24T07:14:08.181Z,8.65
2024-02-24T07:16:37.601Z,8.27
2024-02-24T07:19:07.314Z,8.73
2024-02-24T07:21:36.779Z,7.30
2024-02-24T07:24:06.786Z,8.65
2024-02-24T07:26:46.825Z,8.30
2024-02-24T07:29:18.519Z,9.43
2024-02-24T07:31:49.099Z,8.52
2024-02-24T07:34:18.770Z,8.60
2024-02-24T07:36:48.197Z,8.18
2024-02-24T07:39:17.681Z,8.05
2024-02-24T07:41:47.389Z,7.53
2024-02-24T07:44:18.418Z,8.20
2024-02-24T07:46:49.353Z,8.07
2024-02-24T07:49:18.754Z,8.65
2024-02-24T07:51:48.356Z,8.05
2024-02-24T07:54:17.600Z,9.10
2024-02-24T07:56:47.542Z,8.57
2024-02-24T07:59:17.396Z,8.07
2024-02-24T08:01:46.821Z,8.48
2024-02-24T08:04:17.514Z,8.57
2024-02-24T08:06:47.221Z,9.00
2024-02-24T08:09:17.396Z,9.07
2024-02-24T08:11:46.537Z,7.97
2024-02-24T08:14:16.338Z,8.38
2024-02-24T08:16:47.214Z,7.93
2024-02-24T08:19:18.359Z,7.75
2024-02-24T08:21:48.206Z,8.13
2024-02-24T08:24:18.703Z,7.97
2024-02-24T08:26:50.460Z,8.02
2024-02-24T08:29:20.108Z,7.55
2024-02-24T08:31:50.705Z,9.38
2024-02-24T08:34:20.500Z,7.95
2024-02-24T08:36:50.927Z,7.43
2024-02-24T08:39:20.853Z,7.80
2024-02-24T08:41:51.014Z,7.57
2024-02-24T08:44:22.510Z,8.15
2024-02-24T08:46:52.303Z,7.60
2024-02-24T08:49:21.752Z,7.85
2024-02-24T08:51:51.429Z,8.10
2024-02-24T08:54:23.147Z,6.90
2024-02-24T08:56:52.910Z,6.60
2024-02-24T08:59:22.571Z,7.68
2024-02-24T09:01:55.600Z,7.93
2024-02-24T09:06:54.151Z,9.90
2024-02-24T09:09:23.601Z,7.90
2024-02-24T09:11:53.144Z,7.82
2024-02-24T09:14:22.695Z,8.05
2024-02-24T09:16:57.709Z,7.88
2024-02-24T09:19:28.460Z,8.55
2024-02-24T09:21:58.156Z,8.77
2024-02-24T09:24:27.455Z,9.50
2024-02-24T09:26:57.020Z,8.75
2024-02-24T09:29:26.596Z,9.05
2024-02-24T09:31:55.986Z,8.35
2024-02-24T09:34:25.835Z,9.60
2024-02-24T09:36:57.320Z,9.45
2024-02-24T09:39:27.182Z,8.70
2024-02-24T09:42:02.045Z,9.45
2024-02-24T09:44:34.980Z,10.35
2024-02-24T09:47:06.195Z,10.73
2024-02-24T09:49:36.385Z,10.88
2024-02-24T09:52:07.321Z,9.93
2024-02-24T09:54:39.032Z,10.30
2024-02-24T09:57:15.360Z,11.18
2024-02-24T09:59:48.224Z,10.43
2024-02-24T10:02:21.542Z,10.95
2024-02-24T10:04:57.767Z,10.70
2024-02-24T10:07:28.411Z,10.93
2024-02-24T10:09:59.084Z,10.88
2024-02-24T10:12:35.014Z,10.40
2024-02-24T10:15:05.297Z,10.82
2024-02-24T10:17:35.232Z,10.73
2024-02-24T10:20:05.422Z,10.77
2024-02-24T10:22:35.139Z,11.32
2024-02-24T10:25:05.051Z,11.65
2024-02-24T10:27:35.946Z,11.35
2024-02-24T10:30:07.309Z,11.00
2024-02-24T10:32:38.332Z,11.25
2024-02-24T10:35:08.933Z,11.93
2024-02-24T10:37:56.137Z,12.05
2024-02-24T10:40:28.789Z,13.68
2024-02-24T10:43:01.285Z,12.40
2024-02-24T10:45:31.470Z,11.82
2024-02-24T10:48:02.070Z,11.88
2024-02-24T10:50:32.033Z,12.05
2024-02-24T10:53:03.560Z,11.38
2024-02-24T10:55:37.796Z,13.10
2024-02-24T10:58:07.747Z,12.02
2024-02-24T11:00:38.133Z,13.10
2024-02-24T11:03:10.704Z,13.15
2024-02-24T11:05:40.523Z,13.82
2024-02-24T11:08:37.477Z,14.05
2024-02-24T11:11:10.179Z,14.50
2024-02-24T11:13:55.660Z,12.97
2024-02-24T11:19:14.885Z,11.27
2024-02-24T11:22:05.284Z,11.88
2024-02-24T11:24:37.729Z,10.75
2024-02-24T11:27:08.509Z,11.10
2024-02-24T11:29:39.570Z,11.23
2024-02-24T11:32:18.920Z,10.43
2024-02-24T11:34:49.696Z,10.10
2024-02-24T11:37:22.653Z,10.82
2024-02-24T11:39:52.949Z,10.77
2024-02-24T11:42:25.931Z,10.20
2024-02-24T11:44:58.225Z,10.85
2024-02-24T11:47:30.922Z,10.63
2024-02-24T11:50:00.765Z,10.52
2024-02-24T11:52:30.431Z,9.90
2024-02-24T11:55:00.745Z,10.93
2024-02-24T11:57:30.528Z,8.85
2024-02-24T12:00:00.859Z,9.60
2024-02-24T12:02:30.744Z,9.75
2024-02-24T12:05:19.195Z,9.43
2024-02-24T12:07:49.253Z,10.13
2024-02-24T12:10:19.860Z,11.40
2024-02-24T12:12:50.669Z,10.40
2024-02-24T12:15:20.596Z,10.68
2024-02-24T12:17:51.709Z,11.00
2024-02-24T12:20:28.027Z,10.32
2024-02-24T12:22:59.878Z,10.13
2024-02-24T12:25:29.700Z,10.15
2024-02-24T12:28:00.572Z,10.43
2024-02-24T12:30:38.210Z,10.13
2024-02-24T12:33:09.786Z,10.10
2024-02-24T12:35:40.929Z,10.25
2024-02-24T12:38:20.580Z,9.93
2024-02-24T12:40:50.621Z,11.43
2024-02-24T12:43:20.235Z,10.40
2024-02-24T12:45:52.071Z,10.32
2024-02-24T12:48:22.530Z,10.60
2024-02-24T12:50:52.472Z,12.05
2024-02-24T12:53:23.894Z,10.95
2024-02-24T12:55:54.025Z,10.25
2024-02-24T12:58:25.632Z,10.10
2024-02-24T13:00:55.668Z,10.52
2024-02-24T13:03:25.254Z,10.60
2024-02-24T13:05:55.025Z,10.95
2024-02-24T13:08:26.003Z,10.88
2024-02-24T13:10:56.028Z,11.10
2024-02-24T13:13:26.520Z,11.13
2024-02-24T13:15:56.940Z,11.55
2024-02-24T13:18:27.065Z,11.57
2024-02-24T13:20:57.478Z,11.38
2024-02-24T13:23:27.944Z,13.02
2024-02-24T13:25:57.831Z,11.18
2024-02-24T13:28:27.854Z,11.43
2024-02-24T13:30:57.530Z,11.65
2024-02-24T13:33:27.967Z,11.43
2024-02-24T13:35:59.629Z,11.43
2024-02-24T13:38:29.506Z,11.52
2024-02-24T13:40:58.841Z,11.32
2024-02-24T13:43:28.669Z,12.40
2024-02-24T13:46:00.260Z,11.77
2024-02-24T13:48:29.979Z,13.48
2024-02-24T13:50:59.842Z,12.38
2024-02-24T13:53:38.242Z,13.27
2024-02-24T13:56:11.501Z,13.05
2024-02-24T13:58:42.602Z,14.50
2024-02-24T14:01:14.024Z,13.10
2024-02-24T14:03:44.525Z,14.38
2024-02-24T14:06:18.268Z,16.17
2024-02-24T14:08:53.047Z,14.77
2024-02-24T14:11:22.876Z,14.38
2024-02-24T14:13:55.721Z,14.70
2024-02-24T14:16:28.383Z,13.88
2024-02-24T14:18:59.250Z,14.32
2024-02-24T14:21:31.591Z,15.10
2024-02-24T14:24:02.084Z,15.18
2024-02-24T14:26:32.732Z,13.88
2024-02-24T14:29:03.753Z,15.38
2024-02-24T14:31:34.741Z,15.27
2024-02-24T14:34:06.116Z,15.55
2024-02-24T14:36:37.609Z,15.07
2024-02-24T14:39:10.669Z,16.45
2024-02-24T14:41:40.900Z,15.65
2024-02-24T14:44:10.813Z,16.65
2024-02-24T14:47:01.436Z,15.60
2024-02-24T14:49:31.314Z,17.00
2024-02-24T14:52:04.286Z,18.27
2024-02-24T14:54:36.742Z,17.83
2024-02-24T14:59:51.156Z,18.70
2024-02-24T15:02:35.538Z,18.40
2024-02-24T15:05:17.722Z,18.25
2024-02-24T15:07:49.129Z,18.10
2024-02-24T15:10:19.054Z,18.48
2024-02-24T15:12:54.089Z,19.77
2024-02-24T15:15:24.007Z,19.80
2024-02-24T15:17:58.068Z,19.27
2024-02-24T15:20:28.879Z,19.73
2024-02-24T15:22:59.502Z,19.77
2024-02-24T15:25:33.429Z,18.70
2024-02-24T15:28:06.771Z,18.17
2024-02-24T15:30:37.193Z,19.20
2024-02-24T15:33:07.753Z,19.55
2024-02-24T15:35:38.520Z,17.98
2024-02-24T15:38:11.645Z,18.27
2024-02-24T15:40:42.531Z,18.35
2024-02-24T15:43:12.785Z,17.92
2024-02-24T15:45:42.708Z,17.83
2024-02-24T15:48:12.920Z,17.05
2024-02-24T15:50:44.637Z,17.48
2024-02-24T15:53:15.633Z,17.73
2024-02-24T15:55:48.069Z,18.20
2024-02-24T15:58:18.040Z,18.13
2024-02-24T16:00:48.893Z,18.83
2024-02-24T16:03:23.002Z,18.73
2024-02-24T16:05:54.534Z,18.75
2024-02-24T16:08:25.762Z,20.90
2024-02-24T16:10:56.153Z,20.65
2024-02-24T16:13:26.207Z,20.73
2024-02-24T16:15:57.158Z,18.88
2024-02-24T16:18:27.156Z,21.38
2024-02-24T16:20:57.396Z,20.73
2024-02-24T16:23:28.628Z,21.65
2024-02-24T16:25:59.516Z,21.80
2024-02-24T16:28:32.688Z,21.27
2024-02-24T16:31:03.046Z,24.50
2024-02-24T16:33:34.895Z,21.92
2024-02-24T16:36:05.095Z,22.05
2024-02-24T16:38:38.790Z,21.63
2024-02-24T16:41:09.946Z,22.83
2024-02-24T16:43:43.130Z,22.95
2024-02-24T16:46:13.845Z,21.65
2024-02-24T16:48:43.700Z,21.40
2024-02-24T16:51:13.688Z,21.45
2024-02-24T16:53:44.610Z,22.40
2024-02-24T16:56:14.701Z,23.75
2024-02-24T16:58:44.477Z,22.73
2024-02-24T17:01:14.230Z,24.50
2024-02-24T17:03:46.965Z,24.63
2024-02-24T17:06:17.728Z,26.33
2024-02-24T17:08:47.882Z,26.63
2024-02-24T17:11:22.457Z,28.90
2024-02-24T17:13:53.660Z,35.40
2024-02-24T17:16:23.883Z,48.85
2024-02-24T17:18:55.371Z,61.63
2024-02-24T17:21:28.668Z,46.05
2024-02-24T17:24:00.676Z,39.10
2024-02-24T17:26:31.011Z,39.08
2024-02-24T17:29:01.577Z,35.88
2024-02-24T17:31:32.313Z,35.38
2024-02-24T17:34:03.169Z,48.22
2024-02-24T17:36:40.862Z,69.85
2024-02-24T17:39:13.419Z,57.60
2024-02-24T17:41:46.498Z,48.27
2024-02-24T17:44:17.191Z,40.15
2024-02-24T17:46:47.938Z,38.35
2024-02-24T17:49:18.913Z,40.05
2024-02-24T17:51:48.743Z,49.03
2024-02-24T17:54:18.790Z,61.22
2024-02-24T17:56:48.641Z,61.88
2024-02-24T17:59:20.488Z,57.08
2024-02-24T18:01:51.731Z,64.13
2024-02-24T18:04:22.950Z,75.72
2024-02-24T18:06:54.657Z,75.45
2024-02-24T18:09:29.359Z,226.93
2024-02-24T18:12:00.186Z,234.43
2024-02-24T18:14:31.928Z,139.10
2024-02-24T18:17:02.869Z,77.82
2024-02-24T18:19:44.300Z,44.20
2024-02-24T18:22:16.101Z,41.30
2024-02-24T18:24:47.792Z,42.88
2024-02-24T18:27:20.525Z,45.40
2024-02-24T18:29:52.045Z,52.35
2024-02-24T18:32:32.566Z,58.03
2024-02-24T18:35:13.366Z,69.50
2024-02-24T18:37:48.346Z,66.18
2024-02-24T18:40:22.918Z,64.72
2024-02-24T18:42:53.923Z,65.18
2024-02-24T18:45:28.656Z,63.60
2024-02-24T18:48:04.293Z,61.50
2024-02-24T18:50:35.150Z,60.47
2024-02-24T18:53:06.898Z,58.17
2024-02-24T18:55:40.341Z,57.30
2024-02-24T18:58:12.426Z,54.40
2024-02-24T19:00:43.310Z,56.42
2024-02-24T19:03:14.614Z,53.75
2024-02-24T19:05:45.234Z,53.13
2024-02-24T19:08:15.269Z,50.83
2024-02-24T19:10:45.714Z,50.45
2024-02-24T19:13:16.010Z,48.35
2024-02-24T19:15:46.458Z,45.92
2024-02-24T19:18:17.399Z,45.97
2024-02-24T19:20:48.717Z,44.58
2024-02-24T19:23:27.089Z,44.50
2024-02-24T19:26:00.173Z,33.22
2024-02-24T19:28:30.074Z,29.02
2024-02-24T19:31:01.015Z,25.05
2024-02-24T19:33:34.271Z,23.67
2024-02-24T19:36:05.329Z,22.63
2024-02-24T19:38:35.090Z,24.20
2024-02-24T19:41:04.678Z,24.40
2024-02-24T19:43:34.351Z,23.35
2024-02-24T19:46:04.273Z,25.17
2024-02-24T19:48:34.281Z,23.70
2024-02-24T19:51:06.718Z,23.90
2024-02-24T19:53:37.085Z,21.77
2024-02-24T19:56:07.300Z,21.77
2024-02-24T19:58:42.204Z,21.90
2024-02-24T20:01:17.506Z,20.42
2024-02-24T20:03:46.918Z,20.33
2024-02-24T20:06:16.547Z,20.33
2024-02-24T20:08:45.828Z,18.17
2024-02-24T20:11:15.589Z,16.95
2024-02-24T20:13:44.924Z,17.17
2024-02-24T20:16:14.842Z,17.67
2024-02-24T20:18:45.598Z,18.27
2024-02-24T20:21:16.806Z,15.30
2024-02-24T20:23:46.351Z,17.23
2024-02-24T20:26:15.412Z,16.42
2024-02-24T20:28:45.597Z,17.02
2024-02-24T20:31:15.842Z,17.83
2024-02-24T20:33:53.574Z,15.98
2024-02-24T20:36:29.857Z,15.00
2024-02-24T20:39:00.700Z,14.02
2024-02-24T20:41:31.352Z,13.80
2024-02-24T20:44:02.340Z,13.30
2024-02-24T20:46:31.652Z,13.55
2024-02-24T20:49:00.829Z,14.75
2024-02-24T20:51:30.266Z,14.82
2024-02-24T20:53:59.475Z,14.27
2024-02-24T20:56:29.923Z,14.90
2024-02-24T20:58:59.507Z,14.20
2024-02-24T21:01:31.609Z,13.25
2024-02-24T21:04:01.261Z,15.30
2024-02-24T21:06:30.480Z,13.88
2024-02-24T21:08:59.912Z,13.27
2024-02-24T21:11:29.748Z,14.40
2024-02-24T21:14:00.003Z,14.00
2024-02-24T21:16:29.663Z,13.55
2024-02-24T21:18:59.306Z,14.57
2024-02-24T21:21:28.697Z,14.32
2024-02-24T21:23:58.543Z,14.30
2024-02-24T21:26:27.700Z,14.88
2024-02-24T21:28:57.622Z,13.23
2024-02-24T21:31:27.310Z,14.00
2024-02-24T21:33:57.249Z,13.48
2024-02-24T21:36:31.040Z,12.95
2024-02-24T21:39:02.812Z,12.85
2024-02-24T21:41:38.452Z,13.40
2024-02-24T21:44:08.453Z,14.57
2024-02-24T21:46:37.725Z,12.35
2024-02-24T21:49:08.629Z,13.80
2024-02-24T21:51:38.389Z,13.63
2024-02-24T21:54:11.672Z,14.13
2024-02-24T21:56:41.227Z,13.40
2024-02-24T21:59:10.485Z,12.88
2024-02-24T22:01:39.799Z,14.18
2024-02-24T22:04:09.544Z,13.27
2024-02-24T22:06:39.663Z,12.82
2024-02-24T22:09:10.020Z,13.38
2024-02-24T22:11:40.836Z,14.00
2024-02-24T22:14:10.638Z,14.35
2024-02-24T22:16:40.132Z,14.25
2024-02-24T22:19:10.042Z,13.20
2024-02-24T22:21:39.697Z,12.95
2024-02-24T22:24:09.035Z,13.18
2024-02-24T22:26:39.309Z,13.23
2024-02-24T22:29:09.474Z,12.85
2024-02-24T22:31:38.790Z,14.38
2024-02-24T22:34:08.670Z,12.70
2024-02-24T22:36:38.299Z,13.10
2024-02-24T22:39:08.084Z,13.00
2024-02-24T22:41:37.779Z,12.00
2024-02-24T22:44:09.646Z,12.60
2024-02-24T22:46:41.042Z,13.00
2024-02-24T22:49:11.242Z,11.93
2024-02-24T22:51:40.939Z,11.30
2024-02-24T22:54:10.585Z,11.35
2024-02-24T22:56:40.865Z,11.38
2024-02-24T22:59:12.450Z,11.38
2024-02-24T23:01:43.485Z,11.88
2024-02-24T23:04:13.140Z,12.13
2024-02-24T23:06:44.642Z,11.85
2024-02-24T23:09:14.645Z,12.18
2024-02-24T23:11:44.090Z,12.20
2024-02-24T23:14:13.821Z,11.25
2024-02-24T23:16:43.426Z,11.45
2024-02-24T23:19:13.209Z,12.65
2024-02-24T23:21:43.881Z,13.48
2024-02-24T23:24:13.695Z,13.30
2024-02-24T23:26:43.129Z,14.50
2024-02-24T23:29:13.001Z,12.90
2024-02-24T23:31:42.533Z,12.75
2024-02-24T23:34:12.167Z,13.00
2024-02-24T23:36:42.513Z,13.15
2024-02-24T23:39:12.661Z,13.90
2024-02-24T23:41:42.544Z,13.55
2024-02-24T23:44:12.104Z,14.85
2024-02-24T23:46:41.824Z,13.55
2024-02-24T23:49:11.415Z,14.30
2024-02-24T23:51:41.190Z,12.90
2024-02-24T23:54:10.763Z,13.52
2024-02-24T23:56:40.624Z,13.88
2024-02-24T23:59:10.544Z,14.10
